Time;durP1;ratioP1;P1;durP2;ratioP2;P2;SDS_P1;SDS_P2;PMS_P1;PMS_P2;Temp;Humidity;BMP_temperature;BMP_pressure;BME280_temperature;BME280_humidity;BME280_pressure;Samples;Min_cycle;Max_cycle;Signal;HPM_P1;HPM_P2
2021/03/20 00:00:39;;;;;;;2.05;1.10;;;18.10;46.80;;;;;;4977691;28;20088;-60
2021/03/20 00:03:05;;;;;;;1.98;1.13;;;18.00;46.90;;;;;;4983952;28;20049;-62
2021/03/20 00:05:30;;;;;;;2.75;1.50;;;18.00;47.00;;;;;;4986019;28;20030;-61
2021/03/20 00:07:56;;;;;;;2.45;1.30;;;17.90;47.10;;;;;;4985499;28;20034;-61
2021/03/20 00:10:22;;;;;;;2.20;1.40;;;17.90;47.20;;;;;;4984610;28;20568;-61
2021/03/20 00:12:48;;;;;;;2.05;1.40;;;17.90;47.30;;;;;;4967807;28;20441;-65
2021/03/20 00:15:14;;;;;;;2.42;1.27;;;17.80;47.30;;;;;;4983395;28;20044;-61
2021/03/20 00:17:40;;;;;;;2.08;1.20;;;17.90;47.30;;;;;;4999533;28;20621;-65
2021/03/20 00:20:06;;;;;;;2.72;1.17;;;17.80;47.30;;;;;;4985028;28;20031;-61
2021/03/20 00:22:32;;;;;;;2.28;1.13;;;17.80;47.30;;;;;;4999980;28;20136;-65
2021/03/20 00:24:57;;;;;;;2.40;1.48;;;17.80;47.30;;;;;;4985248;28;20034;-61
2021/03/20 00:27:23;;;;;;;2.22;1.23;;;17.80;47.30;;;;;;4984768;28;20571;-60
2021/03/20 00:29:48;;;;;;;1.30;0.80;;;17.80;47.90;;;;;;4983692;28;20117;-64
2021/03/20 00:32:14;;;;;;;2.70;1.45;;;17.80;47.30;;;;;;4984441;28;20077;-58
2021/03/20 00:34:39;;;;;;;2.17;1.25;;;17.70;47.30;;;;;;4984933;28;20070;-59
2021/03/20 00:37:05;;;;;;;2.00;1.08;;;17.80;47.40;;;;;;4998663;28;20129;-60
2021/03/20 00:39:31;;;;;;;2.67;1.17;;;17.80;47.40;;;;;;4984472;28;20616;-59
2021/03/20 00:41:56;;;;;;;2.08;1.40;;;17.80;47.40;;;;;;4983270;28;20038;-64
2021/03/20 00:44:22;;;;;;;2.92;1.20;;;17.80;47.30;;;;;;4984485;28;20037;-60
2021/03/20 00:46:47;;;;;;;3.40;1.23;;;17.80;47.40;;;;;;4984301;28;20034;-64
2021/03/20 00:49:13;;;;;;;2.20;1.38;;;17.80;47.40;;;;;;4984198;28;20045;-65
2021/03/20 00:51:38;;;;;;;1.80;1.20;;;17.70;47.30;;;;;;4998976;28;20038;-61
2021/03/20 00:54:04;;;;;;;1.15;1.00;;;17.80;47.30;;;;;;4984779;28;20031;-60
2021/03/20 00:56:29;;;;;;;3.45;1.30;;;17.70;47.10;;;;;;4982811;28;20409;-64
2021/03/20 00:58:55;;;;;;;3.33;1.40;;;17.80;47.10;;;;;;4985188;28;20084;-64
2021/03/20 01:01:21;;;;;;;2.47;1.10;;;17.80;47.00;;;;;;4983948;28;20114;-60
2021/03/20 01:03:47;;;;;;;2.78;1.55;;;17.80;46.90;;;;;;4983843;28;20517;-64
2021/03/20 01:06:15;;;;;;;2.63;1.30;;;17.80;46.90;;;;;;4982131;28;20073;-65
2021/03/20 01:08:40;;;;;;;2.58;1.35;;;17.70;46.80;;;;;;4982560;28;20049;-59
2021/03/20 01:11:06;;;;;;;2.88;1.35;;;17.80;46.80;;;;;;4982683;28;20054;-60
2021/03/20 01:13:32;;;;;;;2.47;1.23;;;17.70;46.70;;;;;;4982490;28;20539;-62
2021/03/20 01:15:57;;;;;;;2.47;1.38;;;17.70;46.70;;;;;;4984063;28;20130;-67
2021/03/20 01:18:23;;;;;;;4.85;1.35;;;17.70;46.70;;;;;;4999088;28;20498;-59
2021/03/20 01:20:49;;;;;;;3.13;1.15;;;17.70;46.70;;;;;;4982913;28;20599;-58
2021/03/20 01:23:14;;;;;;;2.65;1.40;;;17.70;46.70;;;;;;4984469;28;20038;-59
2021/03/20 01:25:40;;;;;;;3.17;1.45;;;17.70;46.70;;;;;;4998455;28;20072;-64
2021/03/20 01:28:05;;;;;;;1.92;0.93;;;17.70;46.70;;;;;;4983896;28;20066;-61
2021/03/20 01:30:33;;;;;;;1.48;0.93;;;17.60;46.80;;;;;;4983909;28;20042;-62
2021/03/20 01:32:58;;;;;;;2.05;1.05;;;17.70;47.00;;;;;;4983927;28;20089;-61
2021/03/20 01:35:24;;;;;;;2.78;1.35;;;17.70;46.90;;;;;;4984139;28;20512;-61
2021/03/20 01:37:50;;;;;;;2.92;1.50;;;17.80;46.80;;;;;;4966622;28;20049;-63
2021/03/20 01:40:21;;;;;;;1.42;1.00;;;17.90;46.60;;;;;;4983435;28;20124;-60
2021/03/20 01:42:46;;;;;;;1.83;1.10;;;18.00;46.50;;;;;;4983104;28;20046;-59
2021/03/20 01:45:12;;;;;;;1.67;1.08;;;18.00;46.30;;;;;;4983147;28;20061;-64
2021/03/20 01:48:02;;;;;;;1.65;0.85;;;18.10;46.30;;;;;;4982140;28;20046;-59
2021/03/20 01:50:30;;;;;;;3.03;1.10;;;18.10;46.30;;;;;;5015001;23;20042;-62
2021/03/20 01:52:58;;;;;;;1.98;1.20;;;18.10;46.30;;;;;;5005024;28;20108;-60
2021/03/20 01:55:23;;;;;;;2.53;1.15;;;18.10;46.30;;;;;;5008120;28;20443;-60
2021/03/20 01:57:54;;;;;;;3.90;1.30;;;18.10;46.20;;;;;;5016931;28;20029;-60
2021/03/20 02:00:35;;;;;;;2.40;0.75;;;18.10;46.30;;;;;;4994948;28;20041;-60
2021/03/20 02:03:02;;;;;;;2.42;1.40;;;18.10;46.30;;;;;;5007233;28;20080;-60
2021/03/20 02:05:29;;;;;;;3.70;1.20;;;18.10;46.30;;;;;;5008958;28;20029;-61
2021/03/20 02:07:54;;;;;;;1.73;1.05;;;18.10;46.30;;;;;;5009168;28;20033;-59
2021/03/20 02:10:21;;;;;;;2.33;1.52;;;18.10;46.10;;;;;;5016409;28;20095;-55
2021/03/20 02:12:48;;;;;;;2.05;1.15;;;18.10;46.20;;;;;;5008569;28;20037;-61
2021/03/20 02:15:21;;;;;;;3.00;1.40;;;18.10;46.20;;;;;;4988594;28;20409;-57
2021/03/20 02:17:55;;;;;;;1.98;1.10;;;18.10;46.10;;;;;;5002245;28;20037;-61
2021/03/20 02:20:39;;;;;;;2.20;1.20;;;18.10;46.10;;;;;;5011507;28;20037;-61
2021/03/20 02:23:08;;;;;;;1.85;1.08;;;18.10;45.90;;;;;;5011659;28;20120;-64
2021/03/20 02:26:11;;;;;;;1.92;1.25;;;18.10;45.70;;;;;;5014667;28;20041;-60
2021/03/20 02:29:01;;;;;;;1.80;1.10;;;18.10;45.80;;;;;;4996881;28;20034;-62
2021/03/20 02:31:32;;;;;;;1.65;1.05;;;18.10;45.60;;;;;;5009998;28;20083;-62
2021/03/20 02:34:18;;;;;;;3.05;1.23;;;18.10;45.50;;;;;;5009140;28;20048;-63
2021/03/20 02:37:13;;;;;;;1.95;1.23;;;18.10;45.50;;;;;;5004792;28;20041;-57
2021/03/20 02:39:50;;;;;;;1.67;1.02;;;18.10;45.50;;;;;;5000452;28;20099;-65
2021/03/20 02:42:41;;;;;;;2.25;0.85;;;18.10;45.40;;;;;;5008126;28;20470;-64
2021/03/20 02:45:09;;;;;;;1.40;1.05;;;18.10;45.40;;;;;;5003076;28;20083;-63
2021/03/20 02:47:55;;;;;;;2.72;1.35;;;18.00;45.20;;;;;;5008423;28;20167;-58
2021/03/20 02:50:22;;;;;;;4.60;1.33;;;18.00;45.30;;;;;;5009125;28;20030;-63
2021/03/20 02:52:55;;;;;;;2.53;1.17;;;17.90;45.20;;;;;;5011659;28;20211;-64
2021/03/20 02:55:29;;;;;;;2.97;0.98;;;17.90;45.40;;;;;;4995520;28;20064;-60
2021/03/20 02:58:02;;;;;;;1.98;1.17;;;17.90;45.50;;;;;;4958853;28;20114;-59
2021/03/20 03:00:32;;;;;;;2.38;0.80;;;17.80;45.50;;;;;;4986637;28;20088;-59
2021/03/20 03:02:58;;;;;;;2.70;1.25;;;17.80;45.40;;;;;;5014342;28;20067;-61
2021/03/20 03:05:32;;;;;;;2.00;1.20;;;17.80;45.60;;;;;;5014701;28;20528;-61
2021/03/20 03:08:02;;;;;;;3.85;1.33;;;17.80;45.60;;;;;;4999607;28;20104;-61
2021/03/20 03:10:36;;;;;;;1.55;1.00;;;17.80;45.60;;;;;;4996191;28;20034;-60
2021/03/20 03:13:10;;;;;;;1.50;1.20;;;17.80;45.50;;;;;;4985107;28;20029;-62
2021/03/20 03:15:41;;;;;;;2.85;1.13;;;17.70;45.60;;;;;;4980871;28;20038;-60
2021/03/20 03:18:12;;;;;;;1.77;1.00;;;17.70;45.60;;;;;;5027829;28;20037;-61
2021/03/20 03:20:44;;;;;;;1.98;1.15;;;17.80;45.60;;;;;;5003704;28;20491;-65
2021/03/20 03:23:12;;;;;;;2.28;1.00;;;17.70;45.60;;;;;;5026794;28;20041;-65
2021/03/20 03:25:38;;;;;;;1.33;0.80;;;17.70;45.60;;;;;;5007803;28;20046;-63
2021/03/20 03:28:05;;;;;;;3.13;1.10;;;17.70;45.60;;;;;;5024530;28;20034;-59
2021/03/20 03:30:31;;;;;;;1.92;0.95;;;17.70;45.70;;;;;;5008404;28;20092;-60
2021/03/20 03:33:24;;;;;;;1.65;1.00;;;17.70;45.60;;;;;;5000626;28;20289;-63
2021/03/20 03:35:54;;;;;;;1.50;1.00;;;17.70;45.60;;;;;;5029145;28;20037;-61
2021/03/20 03:38:47;;;;;;;1.58;0.90;;;17.70;45.50;;;;;;5012323;28;20489;-64
2021/03/20 03:41:26;;;;;;;1.88;0.80;;;17.70;45.30;;;;;;4992638;28;20654;-62
2021/03/20 03:43:51;;;;;;;0.98;0.80;;;17.70;45.30;;;;;;5022762;28;20038;-57
2021/03/20 03:46:24;;;;;;;3.28;0.75;;;17.70;45.30;;;;;;5026310;28;20092;-62
2021/03/20 03:48:56;;;;;;;1.60;0.90;;;17.70;45.20;;;;;;5002586;28;20049;-58
2021/03/20 03:51:22;;;;;;;1.98;0.90;;;17.70;45.10;;;;;;4995305;28;20038;-62
2021/03/20 03:53:47;;;;;;;1.88;1.13;;;17.70;45.20;;;;;;5003817;28;20038;-61
2021/03/20 03:56:48;;;;;;;1.05;0.80;;;17.70;45.20;;;;;;4996220;28;20030;-61
2021/03/20 03:59:18;;;;;;;1.42;0.77;;;17.70;45.20;;;;;;4984087;28;20668;-61
2021/03/20 04:01:57;;;;;;;1.55;0.80;;;17.60;45.30;;;;;;4996487;28;20037;-63
2021/03/20 04:04:37;;;;;;;2.50;1.20;;;17.60;45.40;;;;;;5015721;28;20037;-63
2021/03/20 04:07:13;;;;;;;1.33;0.70;;;17.60;45.60;;;;;;5003559;28;20253;-62
2021/03/20 04:09:45;;;;;;;1.52;0.85;;;17.70;45.30;;;;;;5004994;28;20654;-60
2021/03/20 04:12:24;;;;;;;1.23;0.80;;;17.80;45.00;;;;;;5011308;28;20064;-58
2021/03/20 04:15:25;;;;;;;2.78;1.10;;;17.90;44.90;;;;;;5011871;28;20570;-61
2021/03/20 04:18:09;;;;;;;1.58;0.70;;;18.00;44.80;;;;;;5002594;28;20038;-58
2021/03/20 04:20:38;;;;;;;1.05;0.90;;;17.90;44.70;;;;;;5014862;28;20038;-62
2021/03/20 04:23:11;;;;;;;1.55;0.90;;;18.00;44.70;;;;;;5014275;28;20049;-62
2021/03/20 04:25:53;;;;;;;3.95;1.10;;;18.10;44.80;;;;;;4987968;28;20041;-61
2021/03/20 04:28:29;;;;;;;1.92;0.80;;;18.10;44.60;;;;;;5012966;28;20037;-63
2021/03/20 04:31:15;;;;;;;1.75;0.77;;;18.00;44.60;;;;;;5017286;28;20064;-60
2021/03/20 04:33:46;;;;;;;0.95;0.55;;;18.00;44.60;;;;;;5011075;28;20068;-64
2021/03/20 04:36:22;;;;;;;2.15;0.90;;;18.00;44.60;;;;;;5011330;28;20037;-63
2021/03/20 04:38:47;;;;;;;1.80;0.70;;;18.00;44.60;;;;;;4998936;28;20034;-62
2021/03/20 04:41:13;;;;;;;1.10;0.63;;;18.10;44.60;;;;;;4997723;28;20035;-63
2021/03/20 04:43:38;;;;;;;2.90;0.80;;;18.00;44.40;;;;;;5005606;28;20040;-59
2021/03/20 04:46:20;;;;;;;1.58;0.70;;;18.00;44.50;;;;;;5013867;28;20543;-61
2021/03/20 04:48:49;;;;;;;2.13;0.90;;;18.00;44.40;;;;;;4997937;28;20046;-64
2021/03/20 04:51:24;;;;;;;2.33;0.80;;;18.00;44.40;;;;;;5000383;28;20037;-63
2021/03/20 04:53:50;;;;;;;3.08;0.65;;;18.00;44.40;;;;;;5012739;28;20070;-63
2021/03/20 04:56:18;;;;;;;2.58;0.90;;;18.00;44.40;;;;;;5010904;28;20120;-61
2021/03/20 04:59:01;;;;;;;1.75;0.93;;;17.90;44.40;;;;;;4992803;28;20034;-62
2021/03/20 05:01:32;;;;;;;2.53;0.93;;;18.00;44.40;;;;;;5002355;28;20065;-61
2021/03/20 05:04:02;;;;;;;1.50;0.90;;;17.90;44.30;;;;;;5010744;28;20034;-61
2021/03/20 05:06:28;;;;;;;1.10;0.88;;;17.90;44.30;;;;;;4977959;28;20026;-62
2021/03/20 05:08:59;;;;;;;2.10;0.88;;;17.90;44.30;;;;;;5001289;28;20087;-60
2021/03/20 05:11:33;;;;;;;1.83;1.20;;;17.80;44.30;;;;;;4976349;28;20038;-59
2021/03/20 05:14:10;;;;;;;1.55;0.68;;;17.80;44.30;;;;;;5011872;28;20555;-64
2021/03/20 05:16:51;;;;;;;1.98;0.70;;;17.80;44.20;;;;;;5013051;28;20045;-62
2021/03/20 05:19:18;;;;;;;2.40;0.80;;;17.80;44.20;;;;;;5013748;28;20034;-62
2021/03/20 05:21:44;;;;;;;4.10;1.00;;;17.70;44.30;;;;;;5009045;28;20038;-62
2021/03/20 05:24:14;;;;;;;2.42;0.93;;;17.70;44.30;;;;;;5007083;28;20061;-62
2021/03/20 05:26:40;;;;;;;1.92;1.00;;;17.70;44.30;;;;;;5013374;28;20034;-60
2021/03/20 05:29:05;;;;;;;1.65;1.13;;;17.70;44.30;;;;;;5003918;28;20061;-62
2021/03/20 05:31:32;;;;;;;1.95;1.10;;;17.70;44.30;;;;;;5011534;28;20030;-59
2021/03/20 05:33:57;;;;;;;2.13;1.00;;;17.70;44.40;;;;;;5012029;28;20030;-63
2021/03/20 05:36:23;;;;;;;3.38;0.90;;;17.60;44.50;;;;;;5017869;28;20519;-61
2021/03/20 05:38:48;;;;;;;1.30;0.80;;;17.60;44.40;;;;;;5014205;28;20024;-63
2021/03/20 05:41:19;;;;;;;1.52;0.75;;;17.60;44.30;;;;;;5013633;28;20033;-65
2021/03/20 05:44:12;;;;;;;0.95;0.75;;;17.60;44.50;;;;;;5011411;28;20056;-60
2021/03/20 05:46:54;;;;;;;2.05;0.70;;;17.60;44.30;;;;;;5014072;28;20033;-63
2021/03/20 05:49:55;;;;;;;1.55;0.70;;;17.60;44.30;;;;;;5011686;28;20133;-64
2021/03/20 05:52:40;;;;;;;2.42;1.02;;;17.60;44.30;;;;;;5010408;28;20073;-64
2021/03/20 05:55:06;;;;;;;;;;;17.60;44.40;;;;;;5013114;28;20491;-63
2021/03/20 05:57:37;;;;;;;2.47;0.82;;;17.60;44.50;;;;;;5011739;28;19917;-62
2021/03/20 06:00:12;;;;;;;0.80;0.77;;;17.50;44.50;;;;;;4993759;28;20411;-58
2021/03/20 06:02:47;;;;;;;2.58;0.82;;;17.50;44.70;;;;;;5004124;28;20129;-60
2021/03/20 06:05:30;;;;;;;2.05;0.90;;;17.50;44.80;;;;;;5009694;28;20033;-62
2021/03/20 06:08:20;;;;;;;1.50;0.85;;;17.40;44.80;;;;;;5012749;28;20057;-61
2021/03/20 06:11:03;;;;;;;1.50;0.80;;;17.30;45.00;;;;;;4987931;28;20030;-62
2021/03/20 06:14:02;;;;;;;0.95;0.85;;;17.30;45.20;;;;;;5009416;28;20560;-62
2021/03/20 06:16:30;;;;;;;2.17;1.08;;;17.30;45.30;;;;;;5011151;28;20037;-62
2021/03/20 06:19:01;;;;;;;1.52;0.80;;;17.40;45.20;;;;;;4996513;28;20042;-62
2021/03/20 06:22:07;;;;;;;1.05;0.73;;;17.40;45.20;;;;;;5012824;28;20109;-63
2021/03/20 06:25:00;;;;;;;0.85;0.65;;;17.50;45.00;;;;;;5008786;28;20057;-63
2021/03/20 06:27:35;;;;;;;1.33;0.70;;;17.60;45.00;;;;;;4994039;28;20033;-59
2021/03/20 06:30:27;;;;;;;2.30;0.98;;;17.60;45.00;;;;;;5003773;28;20109;-64
2021/03/20 06:32:53;;;;;;;2.10;0.80;;;17.60;44.90;;;;;;5003506;28;20034;-62
2021/03/20 06:35:18;;;;;;;1.92;0.90;;;17.70;45.00;;;;;;5013232;28;20116;-64
2021/03/20 06:37:51;;;;;;;1.17;1.05;;;17.70;44.80;;;;;;5019687;28;20410;-64
2021/03/20 06:40:51;;;;;;;1.98;0.90;;;17.80;44.90;;;;;;5014956;28;20029;-64
2021/03/20 06:43:17;;;;;;;1.98;1.00;;;17.80;44.90;;;;;;5007918;28;20508;-62
2021/03/20 06:45:43;;;;;;;2.05;1.20;;;17.80;44.80;;;;;;5015615;28;20040;-61
2021/03/20 06:48:15;;;;;;;1.75;0.90;;;17.90;44.80;;;;;;5014931;28;20069;-62
2021/03/20 06:50:52;;;;;;;2.50;0.90;;;17.90;44.80;;;;;;4993429;28;20039;-62
2021/03/20 06:53:18;;;;;;;1.38;0.85;;;17.90;44.80;;;;;;5023013;28;20041;-62
2021/03/20 06:55:48;;;;;;;1.65;1.08;;;17.90;44.80;;;;;;5027107;28;20776;-62
2021/03/20 06:58:16;;;;;;;2.33;0.98;;;17.90;44.70;;;;;;5029759;28;20036;-63
2021/03/20 07:00:42;;;;;;;2.15;0.90;;;17.90;44.80;;;;;;5004374;28;20061;-56
2021/03/20 07:03:13;;;;;;;2.53;1.00;;;17.80;44.70;;;;;;4997994;28;20145;-62
2021/03/20 07:05:47;;;;;;;2.25;1.30;;;17.90;44.60;;;;;;5005052;28;20041;-60
2021/03/20 07:08:25;;;;;;;1.85;0.93;;;17.90;44.50;;;;;;4996110;28;20038;-59
2021/03/20 07:10:53;;;;;;;1.65;1.15;;;17.90;44.30;;;;;;5011288;28;20083;-60
2021/03/20 07:13:28;;;;;;;2.35;1.60;;;18.00;44.30;;;;;;5014838;28;20037;-57
2021/03/20 07:16:11;;;;;;;1.60;1.20;;;17.90;44.20;;;;;;5013145;28;20040;-60
2021/03/20 07:18:53;;;;;;;3.28;1.40;;;17.90;44.30;;;;;;5016827;28;20065;-58
2021/03/20 07:21:20;;;;;;;2.83;1.50;;;17.90;44.30;;;;;;5016321;28;20588;-61
2021/03/20 07:24:16;;;;;;;4.63;1.70;;;17.80;44.40;;;;;;5014687;28;20042;-61
2021/03/20 07:26:49;;;;;;;13.63;2.00;;;17.80;44.60;;;;;;4996093;28;20504;-58
2021/03/20 07:29:15;;;;;;;4.32;1.23;;;17.70;44.90;;;;;;5015307;28;20121;-59
2021/03/20 07:31:57;;;;;;;3.10;1.52;;;17.70;45.00;;;;;;5013490;28;20125;-60
2021/03/20 07:34:25;;;;;;;4.13;1.42;;;17.70;45.20;;;;;;5014795;28;20037;-59
2021/03/20 07:37:08;;;;;;;2.25;1.13;;;17.70;45.40;;;;;;5015843;28;20040;-60
2021/03/20 07:39:38;;;;;;;4.57;1.52;;;17.60;45.50;;;;;;4998088;28;20041;-54
2021/03/20 07:42:06;;;;;;;7.80;1.50;;;17.60;45.60;;;;;;5016835;28;20038;-57
2021/03/20 07:44:57;;;;;;;4.38;1.40;;;17.60;45.60;;;;;;5004843;28;20475;-61
2021/03/20 07:47:25;;;;;;;6.13;1.48;;;17.60;45.80;;;;;;5013570;28;20037;-58
2021/03/20 07:50:05;;;;;;;3.15;1.30;;;17.60;46.00;;;;;;5011011;28;20030;-59
2021/03/20 07:52:30;;;;;;;7.22;2.22;;;17.60;46.20;;;;;;5014061;28;20038;-61
2021/03/20 07:55:03;;;;;;;5.55;1.70;;;17.60;46.30;;;;;;5015277;28;20048;-60
2021/03/20 07:57:29;;;;;;;3.53;1.55;;;17.50;46.40;;;;;;5015842;28;20044;-56
2021/03/20 07:59:54;;;;;;;3.58;1.55;;;17.50;46.40;;;;;;4986095;28;20034;-60
2021/03/20 08:02:34;;;;;;;5.88;1.60;;;17.50;46.40;;;;;;5003611;22;20041;-66
2021/03/20 08:05:18;;;;;;;7.15;1.52;;;17.50;46.40;;;;;;4974180;28;20038;-67
2021/03/20 08:07:48;;;;;;;5.90;2.55;;;17.50;46.40;;;;;;5000647;28;20420;-66
2021/03/20 08:10:27;;;;;;;5.93;1.98;;;17.50;46.30;;;;;;5002568;28;20113;-67
2021/03/20 08:13:00;;;;;;;2.13;1.55;;;17.50;46.30;;;;;;5003322;28;20046;-64
2021/03/20 08:15:34;;;;;;;3.50;1.95;;;17.50;46.20;;;;;;4985773;28;20030;-64
2021/03/20 08:18:06;;;;;;;7.63;2.63;;;17.50;46.10;;;;;;5002608;28;20052;-66
2021/03/20 08:20:31;;;;;;;5.95;2.20;;;17.50;46.00;;;;;;5003058;28;20041;-66
2021/03/20 08:23:21;;;;;;;6.45;3.00;;;17.50;45.90;;;;;;5004014;28;20065;-67
2021/03/20 08:25:59;;;;;;;23.73;6.95;;;17.60;45.90;;;;;;5002175;28;20042;-67
2021/03/20 08:28:30;;;;;;;26.27;8.15;;;17.60;46.20;;;;;;5002810;28;20454;-68
2021/03/20 08:31:02;;;;;;;25.95;8.40;;;17.60;46.40;;;;;;5003109;28;20065;-69
2021/03/20 08:33:31;;;;;;;25.70;8.52;;;17.60;46.50;;;;;;5002449;28;20436;-67
2021/03/20 08:36:24;;;;;;;27.05;8.32;;;17.60;46.60;;;;;;5009207;28;20099;-68
2021/03/20 08:38:53;;;;;;;23.38;7.07;;;17.60;46.80;;;;;;5007233;28;20037;-68
2021/03/20 08:41:29;;;;;;;26.35;6.90;;;17.60;46.90;;;;;;5022664;28;20057;-68
2021/03/20 08:44:10;;;;;;;25.73;7.20;;;17.60;47.00;;;;;;5005948;28;25174;-66
2021/03/20 08:46:46;;;;;;;19.80;6.20;;;17.60;47.20;;;;;;5021169;28;20065;-66
2021/03/20 08:49:36;;;;;;;20.02;6.18;;;17.60;47.90;;;;;;5021914;28;20029;-65
2021/03/20 08:52:04;;;;;;;20.13;5.82;;;17.60;48.80;;;;;;5023523;28;20095;-66
2021/03/20 08:55:00;;;;;;;18.75;5.20;;;17.50;49.80;;;;;;5024145;28;20116;-66
2021/03/20 08:57:46;;;;;;;13.73;5.70;;;17.50;50.70;;;;;;5005558;28;20053;-65
2021/03/20 09:00:32;;;;;;;;;;;17.50;51.50;;;;;;5022212;28;20045;-64
2021/03/20 09:03:01;;;;;;;13.02;4.53;;;17.50;51.00;;;;;;5015065;28;19975;-64
2021/03/20 09:05:35;;;;;;;11.02;4.05;;;17.50;50.60;;;;;;5005879;28;20033;-62
2021/03/20 09:08:24;;;;;;;11.65;3.78;;;17.50;50.50;;;;;;5014521;28;20429;-65
2021/03/20 09:11:02;;;;;;;14.70;4.13;;;17.50;50.10;;;;;;5014552;28;20034;-63
2021/03/20 09:13:41;;;;;;;7.70;3.28;;;17.50;50.10;;;;;;5021000;28;20031;-65
2021/03/20 09:16:20;;;;;;;13.38;3.67;;;17.50;49.90;;;;;;5020709;28;20404;-63
2021/03/20 09:18:46;;;;;;;11.70;3.50;;;17.40;49.90;;;;;;5005219;28;20539;-63
2021/03/20 09:21:11;;;;;;;12.00;3.47;;;17.50;49.60;;;;;;5020647;28;20040;-63
2021/03/20 09:23:48;;;;;;;7.80;3.22;;;17.50;49.50;;;;;;5020863;28;20052;-64
2021/03/20 09:26:46;;;;;;;7.38;2.80;;;17.40;49.30;;;;;;5020739;28;20034;-61
2021/03/20 09:29:16;;;;;;;9.55;3.40;;;17.50;49.30;;;;;;5022253;28;20034;-65
2021/03/20 09:31:53;;;;;;;8.93;3.35;;;17.40;49.00;;;;;;5015898;28;20029;-65
2021/03/20 09:34:34;;;;;;;12.98;3.00;;;17.50;49.00;;;;;;5023755;28;20044;-65
2021/03/20 09:37:05;;;;;;;9.00;2.80;;;17.40;48.80;;;;;;5023266;28;20026;-64
2021/03/20 09:39:43;;;;;;;6.00;2.72;;;17.50;48.80;;;;;;5022269;28;20038;-64
2021/03/20 09:42:31;;;;;;;8.93;3.03;;;17.50;48.60;;;;;;5021089;28;20037;-63
2021/03/20 09:45:26;;;;;;;7.90;2.53;;;17.50;48.90;;;;;;5013928;28;20381;-63
2021/03/20 09:47:53;;;;;;;5.97;2.47;;;17.40;48.30;;;;;;5004433;28;20047;-63
2021/03/20 09:50:18;;;;;;;9.80;2.70;;;17.40;48.10;;;;;;5022270;28;20512;-63
2021/03/20 09:53:08;;;;;;;8.23;2.28;;;17.40;48.00;;;;;;5021942;28;20040;-65
2021/03/20 09:55:41;;;;;;;6.80;2.53;;;17.40;48.00;;;;;;5021767;28;20036;-64
2021/03/20 09:58:18;;;;;;;7.25;2.55;;;17.40;47.90;;;;;;5022545;28;20568;-65
2021/03/20 10:00:50;;;;;;;6.03;2.47;;;17.40;47.80;;;;;;5022290;28;20053;-64
2021/03/20 10:04:13;;;;;;;7.13;2.60;;;17.40;47.80;;;;;;5021924;28;20038;-64
2021/03/20 10:06:40;;;;;;;5.28;2.22;;;17.40;47.80;;;;;;5015410;28;20044;-64
2021/03/20 10:09:11;;;;;;;5.15;2.38;;;17.40;47.80;;;;;;5022007;28;20535;-66
2021/03/20 10:11:41;;;;;;;4.72;2.00;;;17.40;47.80;;;;;;5022060;28;20065;-64
2021/03/20 10:14:31;;;;;;;4.35;2.15;;;17.40;47.80;;;;;;5020513;28;20108;-65
2021/03/20 10:17:28;;;;;;;5.38;2.47;;;17.30;47.80;;;;;;5030482;28;20492;-64
2021/03/20 10:19:54;;;;;;;;;;;17.30;48.40;;;;;;5001793;28;20092;-63
2021/03/20 10:22:28;;;;;;;6.57;2.25;;;17.30;47.80;;;;;;5021255;28;20070;-64
2021/03/20 10:24:54;;;;;;;5.15;1.88;;;17.30;47.90;;;;;;5020906;28;20033;-64
2021/03/20 10:27:28;;;;;;;6.20;1.73;;;17.30;47.90;;;;;;5020047;28;20033;-64
2021/03/20 10:29:53;;;;;;;3.17;1.65;;;17.30;47.80;;;;;;5020206;28;20061;-65
2021/03/20 10:32:23;;;;;;;5.28;1.80;;;17.30;47.80;;;;;;5021780;28;20594;-65
2021/03/20 10:34:57;;;;;;;4.18;1.90;;;17.30;47.70;;;;;;5022121;28;20037;-64
2021/03/20 10:37:30;;;;;;;4.30;1.60;;;17.40;47.60;;;;;;5020903;28;20037;-63
2021/03/20 10:40:05;;;;;;;5.32;2.35;;;17.40;47.50;;;;;;5021625;28;20280;-64
2021/03/20 10:42:32;;;;;;;6.50;1.67;;;17.50;47.40;;;;;;5020757;28;20134;-63
2021/03/20 10:44:59;;;;;;;6.72;1.70;;;17.50;47.20;;;;;;5020240;28;20083;-63
2021/03/20 10:47:32;;;;;;;7.75;1.83;;;17.60;47.10;;;;;;5019695;28;20381;-63
2021/03/20 10:50:01;;;;;;;13.90;2.30;;;17.70;47.00;;;;;;5022120;28;20515;-63
2021/03/20 10:52:34;;;;;;;13.98;2.70;;;17.70;46.90;;;;;;5021328;28;20029;-63
2021/03/20 10:55:14;;;;;;;16.42;2.25;;;17.80;46.80;;;;;;5020632;28;20033;-63
2021/03/20 10:57:40;;;;;;;12.55;2.20;;;17.80;46.70;;;;;;5014911;28;20045;-65
2021/03/20 11:00:30;;;;;;;8.45;1.65;;;17.80;46.50;;;;;;5020589;28;20642;-64
2021/03/20 11:03:36;;;;;;;12.45;2.28;;;17.90;46.50;;;;;;5006314;28;20548;-63
2021/03/20 11:06:18;;;;;;;23.75;3.17;;;17.90;46.40;;;;;;5014758;28;20033;-65
2021/03/20 11:08:46;;;;;;;16.27;2.83;;;17.90;46.40;;;;;;5021860;28;20120;-63
2021/03/20 11:11:17;;;;;;;14.35;2.38;;;17.90;46.20;;;;;;5021572;28;20084;-67
2021/03/20 11:13:47;;;;;;;11.05;2.10;;;18.00;46.10;;;;;;5021455;28;20034;-64
2021/03/20 11:16:14;;;;;;;18.92;3.17;;;17.90;46.10;;;;;;5012829;28;20057;-63
2021/03/20 11:18:43;;;;;;;24.75;3.28;;;17.90;46.20;;;;;;5012718;28;20040;-66
2021/03/20 11:21:39;;;;;;;25.05;4.38;;;17.90;46.20;;;;;;5013132;28;20072;-63
2021/03/20 11:24:24;;;;;;;31.83;4.85;;;17.90;46.20;;;;;;4998082;28;20041;-64
2021/03/20 11:26:50;;;;;;;28.55;5.10;;;18.00;45.90;;;;;;5018176;28;20068;-64
2021/03/20 11:29:24;;;;;;;30.90;5.28;;;18.00;45.70;;;;;;5025529;28;20068;-63
2021/03/20 11:31:52;;;;;;;33.88;4.93;;;18.00;45.50;;;;;;5007538;28;20183;-64
2021/03/20 11:34:20;;;;;;;37.40;4.07;;;18.00;45.70;;;;;;5023938;28;20057;-65
2021/03/20 11:36:46;;;;;;;34.28;4.95;;;17.90;45.90;;;;;;5024194;28;20042;-65
2021/03/20 11:39:13;;;;;;;24.75;4.18;;;17.80;46.10;;;;;;5025027;28;20137;-65
2021/03/20 11:41:39;;;;;;;33.08;4.00;;;17.70;46.30;;;;;;5024846;28;20123;-64
2021/03/20 11:44:27;;;;;;;23.80;4.28;;;17.70;46.60;;;;;;5024252;28;20033;-65
2021/03/20 11:46:57;;;;;;;16.05;3.35;;;17.60;46.70;;;;;;5009047;28;20030;-63
2021/03/20 11:49:27;;;;;;;19.98;2.90;;;17.60;47.00;;;;;;5023014;28;20033;-62
2021/03/20 11:51:53;;;;;;;16.75;3.15;;;17.60;47.30;;;;;;5023393;28;20107;-60
2021/03/20 11:54:30;;;;;;;9.95;3.25;;;17.60;47.50;;;;;;5023838;28;20696;-62
2021/03/20 11:57:04;;;;;;;13.43;2.80;;;17.60;47.50;;;;;;5021506;28;20037;-62
2021/03/20 11:59:34;;;;;;;12.25;3.03;;;17.60;47.50;;;;;;5025198;28;20113;-63
2021/03/20 12:02:00;;;;;;;9.50;2.53;;;17.60;47.40;;;;;;5023585;28;20496;-65
2021/03/20 12:04:27;;;;;;;11.30;2.80;;;17.60;47.30;;;;;;5023217;28;20080;-62
2021/03/20 12:07:12;;;;;;;21.42;3.40;;;17.60;47.10;;;;;;5023280;28;20037;-61
2021/03/20 12:09:37;;;;;;;16.35;2.78;;;17.60;47.10;;;;;;5023100;28;20033;-59
2021/03/20 12:12:04;;;;;;;16.42;3.35;;;17.60;46.90;;;;;;5024190;28;20060;-59
2021/03/20 12:14:31;;;;;;;14.77;5.82;;;17.60;46.80;;;;;;5024814;28;20033;-63
2021/03/20 12:17:17;;;;;;;15.43;6.20;;;17.60;46.90;;;;;;5021611;28;20022;-59
2021/03/20 12:19:53;;;;;;;;;;;17.60;46.90;;;;;;5023993;28;20056;-64
2021/03/20 12:22:44;;;;;;;26.50;7.97;;;17.60;46.90;;;;;;5023849;28;19951;-64
2021/03/20 12:25:22;;;;;;;18.90;7.55;;;17.60;46.90;;;;;;5024964;28;20707;-63
2021/03/20 12:27:48;;;;;;;18.95;7.07;;;17.60;46.80;;;;;;5023650;28;20041;-64
2021/03/20 12:30:32;;;;;;;17.95;6.90;;;17.60;46.70;;;;;;5024667;28;20036;-61
2021/03/20 12:33:10;;;;;;;24.63;7.10;;;17.60;46.60;;;;;;5015972;28;20034;-57
2021/03/20 12:35:46;;;;;;;19.95;6.65;;;17.50;46.40;;;;;;5025040;28;20133;-63
2021/03/20 12:38:16;;;;;;;14.95;5.85;;;17.50;46.30;;;;;;5024150;28;20056;-60
2021/03/20 12:41:00;;;;;;;18.95;6.53;;;17.50;46.20;;;;;;5024580;28;20434;-63
2021/03/20 12:43:35;;;;;;;14.70;5.70;;;17.50;46.00;;;;;;5023067;28;20040;-63
2021/03/20 12:46:02;;;;;;;;;;;17.50;46.00;;;;;;5024686;28;20038;-66
2021/03/20 12:48:28;;;;;;;29.02;12.13;;;17.50;46.10;;;;;;5023497;28;19913;-65
2021/03/20 12:51:01;;;;;;;35.10;15.05;;;17.50;47.10;;;;;;5022173;28;20038;-64
2021/03/20 12:53:26;;;;;;;43.58;17.83;;;17.50;47.90;;;;;;5021916;28;20034;-65
2021/03/20 12:55:52;;;;;;;41.05;18.33;;;17.40;49.00;;;;;;5023147;28;20109;-63
2021/03/20 12:58:17;;;;;;;39.50;17.67;;;17.40;48.90;;;;;;5023966;28;20030;-61
2021/03/20 13:00:43;;;;;;;42.33;17.60;;;17.50;49.00;;;;;;5023813;28;20121;-65
2021/03/20 13:03:08;;;;;;;40.67;16.65;;;17.60;49.30;;;;;;5022607;28;20037;-64
2021/03/20 13:05:36;;;;;;;39.40;14.30;;;17.70;49.10;;;;;;5022375;28;20151;-65
2021/03/20 13:08:01;;;;;;;35.28;14.82;;;17.70;49.00;;;;;;5022727;28;20060;-64
2021/03/20 13:10:27;;;;;;;34.25;15.18;;;17.90;48.80;;;;;;5021408;28;20247;-65
2021/03/20 13:12:52;;;;;;;37.10;14.80;;;17.90;48.70;;;;;;5022757;28;20029;-64
2021/03/20 13:15:18;;;;;;;36.65;15.15;;;18.00;48.80;;;;;;5022668;28;20037;-62
2021/03/20 13:17:44;;;;;;;30.90;13.40;;;18.00;48.70;;;;;;5022788;28;20030;-64